sensor_id;sensor_type;location;lat;lon;timestamp;P1;durP1;ratioP1;P2;durP2;ratioP2
11711;SDS011;5912;51.034;6.984;2022-10-31T00:02:14;8.65;;;4.97;;
11711;SDS011;5912;51.034;6.984;2022-10-31T00:04:39;8.48;;;4.43;;
11711;SDS011;5912;51.034;6.984;2022-10-31T00:07:04;8.13;;;4.72;;
11711;SDS011;5912;51.034;6.984;2022-10-31T00:09:30;10.00;;;4.55;;
11711;SDS011;5912;51.034;6.984;2022-10-31T00:11:55;8.48;;;4.55;;
11711;SDS011;5912;51.034;6.984;2022-10-31T00:14:20;6.68;;;4.70;;
11711;SDS011;5912;51.034;6.984;2022-10-31T00:16:46;8.30;;;5.25;;
11711;SDS011;5912;51.034;6.984;2022-10-31T00:19:11;7.22;;;4.75;;
11711;SDS011;5912;51.034;6.984;2022-10-31T00:21:36;7.10;;;4.40;;
11711;SDS011;5912;51.034;6.984;2022-10-31T00:24:02;7.57;;;5.13;;
11711;SDS011;5912;51.034;6.984;2022-10-31T00:26:28;6.70;;;4.88;;
11711;SDS011;5912;51.034;6.984;2022-10-31T00:28:54;9.00;;;4.63;;
11711;SDS011;5912;51.034;6.984;2022-10-31T00:31:20;9.10;;;4.93;;
11711;SDS011;5912;51.034;6.984;2022-10-31T00:37:00;8.68;;;4.28;;
11711;SDS011;5912;51.034;6.984;2022-10-31T00:39:25;5.38;;;4.43;;
11711;SDS011;5912;51.034;6.984;2022-10-31T00:41:50;7.97;;;4.50;;
11711;SDS011;5912;51.034;6.984;2022-10-31T00:44:16;8.32;;;4.65;;
11711;SDS011;5912;51.034;6.984;2022-10-31T00:46:41;9.23;;;4.35;;
11711;SDS011;5912;51.034;6.984;2022-10-31T00:49:06;9.52;;;4.82;;
11711;SDS011;5912;51.034;6.984;2022-10-31T00:51:32;11.18;;;5.05;;
11711;SDS011;5912;51.034;6.984;2022-10-31T00:53:57;9.50;;;4.97;;
11711;SDS011;5912;51.034;6.984;2022-10-31T00:56:22;6.88;;;4.68;;
11711;SDS011;5912;51.034;6.984;2022-10-31T00:58:47;9.20;;;4.47;;
11711;SDS011;5912;51.034;6.984;2022-10-31T01:01:13;6.43;;;4.45;;
11711;SDS011;5912;51.034;6.984;2022-10-31T01:03:38;9.02;;;4.93;;
11711;SDS011;5912;51.034;6.984;2022-10-31T01:06:06;11.38;;;5.47;;
11711;SDS011;5912;51.034;6.984;2022-10-31T01:08:33;8.90;;;4.88;;
11711;SDS011;5912;51.034;6.984;2022-10-31T01:11:03;9.77;;;5.63;;
11711;SDS011;5912;51.034;6.984;2022-10-31T01:13:36;7.90;;;5.78;;
11711;SDS011;5912;51.034;6.984;2022-10-31T01:16:02;9.63;;;5.20;;
11711;SDS011;5912;51.034;6.984;2022-10-31T01:18:29;6.82;;;5.03;;
11711;SDS011;5912;51.034;6.984;2022-10-31T01:21:03;8.30;;;4.95;;
11711;SDS011;5912;51.034;6.984;2022-10-31T01:23:33;5.72;;;4.40;;
11711;SDS011;5912;51.034;6.984;2022-10-31T01:26:06;10.88;;;4.50;;
11711;SDS011;5912;51.034;6.984;2022-10-31T01:28:35;7.15;;;4.63;;
11711;SDS011;5912;51.034;6.984;2022-10-31T01:31:06;7.53;;;4.60;;
11711;SDS011;5912;51.034;6.984;2022-10-31T01:33:33;9.02;;;4.97;;
11711;SDS011;5912;51.034;6.984;2022-10-31T01:35:59;7.32;;;5.32;;
11711;SDS011;5912;51.034;6.984;2022-10-31T01:38:24;7.28;;;4.60;;
11711;SDS011;5912;51.034;6.984;2022-10-31T01:40:50;7.90;;;4.35;;
11711;SDS011;5912;51.034;6.984;2022-10-31T01:43:16;5.70;;;4.50;;
11711;SDS011;5912;51.034;6.984;2022-10-31T01:45:42;8.15;;;4.38;;
11711;SDS011;5912;51.034;6.984;2022-10-31T01:48:12;8.57;;;4.85;;
11711;SDS011;5912;51.034;6.984;2022-10-31T01:50:40;9.35;;;4.60;;
11711;SDS011;5912;51.034;6.984;2022-10-31T01:53:07;7.05;;;4.60;;
11711;SDS011;5912;51.034;6.984;2022-10-31T01:55:38;6.82;;;4.07;;
11711;SDS011;5912;51.034;6.984;2022-10-31T01:58:11;7.03;;;4.10;;
11711;SDS011;5912;51.034;6.984;2022-10-31T02:00:39;6.00;;;4.18;;
11711;SDS011;5912;51.034;6.984;2022-10-31T02:03:08;7.05;;;4.20;;
11711;SDS011;5912;51.034;6.984;2022-10-31T02:05:33;6.35;;;4.10;;
11711;SDS011;5912;51.034;6.984;2022-10-31T02:08:17;6.45;;;4.18;;
11711;SDS011;5912;51.034;6.984;2022-10-31T02:10:47;5.93;;;4.10;;
11711;SDS011;5912;51.034;6.984;2022-10-31T02:13:12;7.20;;;4.75;;
11711;SDS011;5912;51.034;6.984;2022-10-31T02:15:39;7.15;;;4.40;;
11711;SDS011;5912;51.034;6.984;2022-10-31T02:18:07;8.35;;;4.47;;
11711;SDS011;5912;51.034;6.984;2022-10-31T02:31:58;5.10;;;3.38;;
11711;SDS011;5912;51.034;6.984;2022-10-31T02:37:18;5.18;;;3.75;;
11711;SDS011;5912;51.034;6.984;2022-10-31T02:39:50;4.78;;;3.50;;
11711;SDS011;5912;51.034;6.984;2022-10-31T02:45:26;7.20;;;4.28;;
11711;SDS011;5912;51.034;6.984;2022-10-31T02:48:16;5.90;;;3.90;;
11711;SDS011;5912;51.034;6.984;2022-10-31T02:50:46;7.63;;;4.28;;
11711;SDS011;5912;51.034;6.984;2022-10-31T02:53:17;6.53;;;4.10;;
11711;SDS011;5912;51.034;6.984;2022-10-31T02:55:45;7.05;;;4.40;;
11711;SDS011;5912;51.034;6.984;2022-10-31T02:58:20;4.60;;;3.63;;
11711;SDS011;5912;51.034;6.984;2022-10-31T03:01:01;6.10;;;3.42;;
11711;SDS011;5912;51.034;6.984;2022-10-31T03:18:03;7.43;;;4.50;;
11711;SDS011;5912;51.034;6.984;2022-10-31T03:20:30;8.27;;;4.93;;
11711;SDS011;5912;51.034;6.984;2022-10-31T03:23:03;6.22;;;3.95;;
11711;SDS011;5912;51.034;6.984;2022-10-31T03:25:31;5.15;;;4.28;;
11711;SDS011;5912;51.034;6.984;2022-10-31T03:27:59;6.38;;;4.45;;
11711;SDS011;5912;51.034;6.984;2022-10-31T03:30:27;6.03;;;3.85;;
11711;SDS011;5912;51.034;6.984;2022-10-31T03:32:54;4.88;;;3.80;;
11711;SDS011;5912;51.034;6.984;2022-10-31T03:35:23;7.03;;;4.25;;
11711;SDS011;5912;51.034;6.984;2022-10-31T03:37:49;5.30;;;3.90;;
11711;SDS011;5912;51.034;6.984;2022-10-31T03:40:19;5.10;;;4.10;;
11711;SDS011;5912;51.034;6.984;2022-10-31T03:42:51;7.10;;;3.80;;
11711;SDS011;5912;51.034;6.984;2022-10-31T03:45:24;6.97;;;4.60;;
11711;SDS011;5912;51.034;6.984;2022-10-31T03:47:52;7.85;;;4.95;;
11711;SDS011;5912;51.034;6.984;2022-10-31T03:50:19;6.85;;;4.25;;
11711;SDS011;5912;51.034;6.984;2022-10-31T03:52:48;7.10;;;4.20;;
11711;SDS011;5912;51.034;6.984;2022-10-31T03:55:19;6.18;;;3.85;;
11711;SDS011;5912;51.034;6.984;2022-10-31T03:57:59;5.72;;;4.25;;
11711;SDS011;5912;51.034;6.984;2022-10-31T04:00:30;5.53;;;3.92;;
11711;SDS011;5912;51.034;6.984;2022-10-31T04:03:15;5.05;;;3.90;;
11711;SDS011;5912;51.034;6.984;2022-10-31T04:05:46;10.90;;;4.38;;
11711;SDS011;5912;51.034;6.984;2022-10-31T04:08:14;6.55;;;3.95;;
11711;SDS011;5912;51.034;6.984;2022-10-31T04:10:42;5.45;;;3.88;;
11711;SDS011;5912;51.034;6.984;2022-10-31T04:13:11;6.15;;;4.25;;
11711;SDS011;5912;51.034;6.984;2022-10-31T04:15:40;9.90;;;3.97;;
11711;SDS011;5912;51.034;6.984;2022-10-31T04:18:07;6.65;;;4.20;;
11711;SDS011;5912;51.034;6.984;2022-10-31T04:20:37;6.97;;;4.40;;
11711;SDS011;5912;51.034;6.984;2022-10-31T04:23:05;7.13;;;4.22;;
11711;SDS011;5912;51.034;6.984;2022-10-31T04:25:34;9.65;;;5.00;;
11711;SDS011;5912;51.034;6.984;2022-10-31T04:27:59;7.60;;;4.70;;
11711;SDS011;5912;51.034;6.984;2022-10-31T04:30:25;8.27;;;5.03;;
11711;SDS011;5912;51.034;6.984;2022-10-31T04:32:50;5.55;;;4.00;;
11711;SDS011;5912;51.034;6.984;2022-10-31T04:35:15;8.20;;;4.68;;
11711;SDS011;5912;51.034;6.984;2022-10-31T04:37:41;7.10;;;4.45;;
11711;SDS011;5912;51.034;6.984;2022-10-31T04:40:06;6.15;;;4.30;;
11711;SDS011;5912;51.034;6.984;2022-10-31T04:42:32;6.95;;;4.07;;
11711;SDS011;5912;51.034;6.984;2022-10-31T04:44:57;6.55;;;4.43;;
11711;SDS011;5912;51.034;6.984;2022-10-31T04:47:22;5.30;;;4.07;;
11711;SDS011;5912;51.034;6.984;2022-10-31T04:49:48;9.05;;;4.05;;
11711;SDS011;5912;51.034;6.984;2022-10-31T04:52:19;7.90;;;4.78;;
11711;SDS011;5912;51.034;6.984;2022-10-31T04:54:44;6.80;;;4.30;;
11711;SDS011;5912;51.034;6.984;2022-10-31T04:57:09;7.78;;;4.78;;
11711;SDS011;5912;51.034;6.984;2022-10-31T04:59:35;7.68;;;4.60;;
11711;SDS011;5912;51.034;6.984;2022-10-31T05:02:00;6.93;;;4.28;;
11711;SDS011;5912;51.034;6.984;2022-10-31T05:04:25;6.32;;;4.85;;
11711;SDS011;5912;51.034;6.984;2022-10-31T05:06:50;11.18;;;5.45;;
11711;SDS011;5912;51.034;6.984;2022-10-31T05:12:09;7.78;;;5.18;;
11711;SDS011;5912;51.034;6.984;2022-10-31T05:14:34;8.10;;;5.07;;
11711;SDS011;5912;51.034;6.984;2022-10-31T05:16:59;9.98;;;5.75;;
11711;SDS011;5912;51.034;6.984;2022-10-31T05:19:25;8.52;;;5.30;;
11711;SDS011;5912;51.034;6.984;2022-10-31T05:21:50;7.15;;;5.45;;
11711;SDS011;5912;51.034;6.984;2022-10-31T05:24:15;9.88;;;5.55;;
11711;SDS011;5912;51.034;6.984;2022-10-31T05:26:40;9.02;;;5.75;;
11711;SDS011;5912;51.034;6.984;2022-10-31T05:29:06;9.57;;;5.68;;
11711;SDS011;5912;51.034;6.984;2022-10-31T05:31:31;11.70;;;5.72;;
11711;SDS011;5912;51.034;6.984;2022-10-31T05:33:56;9.68;;;5.43;;
11711;SDS011;5912;51.034;6.984;2022-10-31T05:36:22;8.25;;;5.70;;
11711;SDS011;5912;51.034;6.984;2022-10-31T05:38:47;8.32;;;5.18;;
11711;SDS011;5912;51.034;6.984;2022-10-31T05:41:12;10.40;;;5.78;;
11711;SDS011;5912;51.034;6.984;2022-10-31T05:43:38;7.32;;;4.95;;
11711;SDS011;5912;51.034;6.984;2022-10-31T05:46:03;8.13;;;5.18;;
11711;SDS011;5912;51.034;6.984;2022-10-31T05:48:28;10.60;;;5.10;;
11711;SDS011;5912;51.034;6.984;2022-10-31T05:50:54;11.48;;;4.85;;
11711;SDS011;5912;51.034;6.984;2022-10-31T05:53:19;9.15;;;4.97;;
11711;SDS011;5912;51.034;6.984;2022-10-31T05:55:44;7.50;;;4.47;;
11711;SDS011;5912;51.034;6.984;2022-10-31T05:58:10;10.95;;;4.40;;
11711;SDS011;5912;51.034;6.984;2022-10-31T06:00:36;5.22;;;4.22;;
11711;SDS011;5912;51.034;6.984;2022-10-31T06:03:02;6.15;;;4.28;;
11711;SDS011;5912;51.034;6.984;2022-10-31T06:05:29;4.90;;;4.05;;
11711;SDS011;5912;51.034;6.984;2022-10-31T06:07:54;6.13;;;4.28;;
11711;SDS011;5912;51.034;6.984;2022-10-31T06:10:20;6.53;;;4.03;;
11711;SDS011;5912;51.034;6.984;2022-10-31T06:12:46;9.20;;;4.65;;
11711;SDS011;5912;51.034;6.984;2022-10-31T06:15:12;7.32;;;4.85;;
11711;SDS011;5912;51.034;6.984;2022-10-31T06:17:38;6.18;;;4.40;;
11711;SDS011;5912;51.034;6.984;2022-10-31T06:20:04;5.80;;;4.28;;
11711;SDS011;5912;51.034;6.984;2022-10-31T06:22:30;7.03;;;4.70;;
11711;SDS011;5912;51.034;6.984;2022-10-31T06:24:55;6.25;;;4.38;;
11711;SDS011;5912;51.034;6.984;2022-10-31T06:27:21;8.20;;;4.30;;
11711;SDS011;5912;51.034;6.984;2022-10-31T06:29:46;12.13;;;5.63;;
11711;SDS011;5912;51.034;6.984;2022-10-31T06:32:13;9.00;;;4.97;;
11711;SDS011;5912;51.034;6.984;2022-10-31T06:34:39;10.55;;;5.63;;
11711;SDS011;5912;51.034;6.984;2022-10-31T06:37:08;7.95;;;4.95;;
11711;SDS011;5912;51.034;6.984;2022-10-31T06:39:35;8.38;;;4.97;;
11711;SDS011;5912;51.034;6.984;2022-10-31T06:42:00;12.45;;;6.32;;
11711;SDS011;5912;51.034;6.984;2022-10-31T06:44:26;8.35;;;5.63;;
11711;SDS011;5912;51.034;6.984;2022-10-31T06:46:51;8.23;;;5.68;;
11711;SDS011;5912;51.034;6.984;2022-10-31T06:49:17;7.25;;;5.63;;
11711;SDS011;5912;51.034;6.984;2022-10-31T06:51:42;7.20;;;5.57;;
11711;SDS011;5912;51.034;6.984;2022-10-31T06:54:08;8.95;;;5.78;;
11711;SDS011;5912;51.034;6.984;2022-10-31T06:56:33;7.90;;;5.80;;
11711;SDS011;5912;51.034;6.984;2022-10-31T06:58:58;8.07;;;5.40;;
11711;SDS011;5912;51.034;6.984;2022-10-31T07:01:24;7.80;;;5.30;;
11711;SDS011;5912;51.034;6.984;2022-10-31T07:03:49;6.63;;;4.50;;
11711;SDS011;5912;51.034;6.984;2022-10-31T07:06:14;6.40;;;4.78;;
11711;SDS011;5912;51.034;6.984;2022-10-31T07:08:40;8.48;;;5.20;;
11711;SDS011;5912;51.034;6.984;2022-10-31T07:11:05;6.88;;;5.30;;
11711;SDS011;5912;51.034;6.984;2022-10-31T07:13:30;10.05;;;5.15;;
11711;SDS011;5912;51.034;6.984;2022-10-31T07:15:59;8.07;;;5.30;;
11711;SDS011;5912;51.034;6.984;2022-10-31T07:18:26;10.13;;;5.65;;
11711;SDS011;5912;51.034;6.984;2022-10-31T07:20:52;8.10;;;5.45;;
11711;SDS011;5912;51.034;6.984;2022-10-31T07:23:18;10.45;;;6.00;;
11711;SDS011;5912;51.034;6.984;2022-10-31T07:25:43;8.70;;;5.43;;
11711;SDS011;5912;51.034;6.984;2022-10-31T07:28:09;10.13;;;5.63;;
11711;SDS011;5912;51.034;6.984;2022-10-31T07:30:35;8.18;;;5.10;;
11711;SDS011;5912;51.034;6.984;2022-10-31T07:33:00;6.38;;;4.32;;
11711;SDS011;5912;51.034;6.984;2022-10-31T07:35:26;7.05;;;5.30;;
11711;SDS011;5912;51.034;6.984;2022-10-31T07:37:53;8.43;;;4.78;;
11711;SDS011;5912;51.034;6.984;2022-10-31T07:40:19;7.90;;;5.13;;
11711;SDS011;5912;51.034;6.984;2022-10-31T07:42:46;7.07;;;4.72;;
11711;SDS011;5912;51.034;6.984;2022-10-31T07:45:14;8.55;;;5.35;;
11711;SDS011;5912;51.034;6.984;2022-10-31T07:47:42;8.43;;;5.38;;
11711;SDS011;5912;51.034;6.984;2022-10-31T07:50:10;10.25;;;4.93;;
11711;SDS011;5912;51.034;6.984;2022-10-31T07:52:36;7.70;;;5.10;;
11711;SDS011;5912;51.034;6.984;2022-10-31T07:55:02;6.57;;;4.72;;
11711;SDS011;5912;51.034;6.984;2022-10-31T07:57:28;6.32;;;4.50;;
11711;SDS011;5912;51.034;6.984;2022-10-31T07:59:54;5.57;;;4.53;;
11711;SDS011;5912;51.034;6.984;2022-10-31T08:02:19;11.23;;;5.20;;
11711;SDS011;5912;51.034;6.984;2022-10-31T08:04:44;5.90;;;4.85;;
11711;SDS011;5912;51.034;6.984;2022-10-31T08:07:10;10.68;;;4.80;;
11711;SDS011;5912;51.034;6.984;2022-10-31T08:09:35;6.97;;;4.95;;
11711;SDS011;5912;51.034;6.984;2022-10-31T08:12:00;7.45;;;5.30;;
11711;SDS011;5912;51.034;6.984;2022-10-31T08:14:26;7.93;;;5.65;;
11711;SDS011;5912;51.034;6.984;2022-10-31T08:16:52;7.35;;;4.63;;
11711;SDS011;5912;51.034;6.984;2022-10-31T08:19:18;9.25;;;5.30;;
11711;SDS011;5912;51.034;6.984;2022-10-31T08:21:43;13.15;;;5.45;;
11711;SDS011;5912;51.034;6.984;2022-10-31T08:24:08;8.25;;;5.68;;
11711;SDS011;5912;51.034;6.984;2022-10-31T08:26:34;7.10;;;5.30;;
11711;SDS011;5912;51.034;6.984;2022-10-31T08:28:59;9.90;;;6.07;;
11711;SDS011;5912;51.034;6.984;2022-10-31T08:31:25;9.77;;;5.38;;
11711;SDS011;5912;51.034;6.984;2022-10-31T08:33:52;11.13;;;5.88;;
11711;SDS011;5912;51.034;6.984;2022-10-31T08:36:18;10.15;;;5.55;;
11711;SDS011;5912;51.034;6.984;2022-10-31T08:38:44;8.27;;;5.00;;
11711;SDS011;5912;51.034;6.984;2022-10-31T08:41:09;6.55;;;5.80;;
11711;SDS011;5912;51.034;6.984;2022-10-31T08:43:34;10.77;;;5.32;;
11711;SDS011;5912;51.034;6.984;2022-10-31T08:46:00;8.35;;;5.50;;
11711;SDS011;5912;51.034;6.984;2022-10-31T08:48:25;8.73;;;5.65;;
11711;SDS011;5912;51.034;6.984;2022-10-31T08:50:50;9.85;;;5.97;;
11711;SDS011;5912;51.034;6.984;2022-10-31T08:53:19;7.75;;;4.88;;
11711;SDS011;5912;51.034;6.984;2022-10-31T08:55:45;7.22;;;5.07;;
11711;SDS011;5912;51.034;6.984;2022-10-31T08:58:15;8.88;;;5.57;;
11711;SDS011;5912;51.034;6.984;2022-10-31T09:00:42;10.75;;;5.63;;
11711;SDS011;5912;51.034;6.984;2022-10-31T09:03:10;8.07;;;5.57;;
11711;SDS011;5912;51.034;6.984;2022-10-31T09:05:37;12.77;;;6.40;;
11711;SDS011;5912;51.034;6.984;2022-10-31T09:08:03;9.30;;;5.75;;
11711;SDS011;5912;51.034;6.984;2022-10-31T09:10:30;8.55;;;5.70;;
11711;SDS011;5912;51.034;6.984;2022-10-31T09:15:23;8.50;;;5.03;;
11711;SDS011;5912;51.034;6.984;2022-10-31T09:17:49;11.18;;;5.78;;
11711;SDS011;5912;51.034;6.984;2022-10-31T09:20:14;8.77;;;5.40;;
11711;SDS011;5912;51.034;6.984;2022-10-31T09:22:40;8.48;;;5.60;;
11711;SDS011;5912;51.034;6.984;2022-10-31T09:25:05;11.00;;;5.55;;
11711;SDS011;5912;51.034;6.984;2022-10-31T09:27:31;7.43;;;5.05;;
11711;SDS011;5912;51.034;6.984;2022-10-31T09:29:56;7.45;;;5.40;;
11711;SDS011;5912;51.034;6.984;2022-10-31T09:32:21;7.97;;;5.07;;
11711;SDS011;5912;51.034;6.984;2022-10-31T09:34:47;10.68;;;5.55;;
11711;SDS011;5912;51.034;6.984;2022-10-31T09:37:12;8.90;;;4.88;;
11711;SDS011;5912;51.034;6.984;2022-10-31T09:39:37;12.15;;;6.00;;
11711;SDS011;5912;51.034;6.984;2022-10-31T09:50:19;8.35;;;5.70;;
11711;SDS011;5912;51.034;6.984;2022-10-31T09:52:58;9.85;;;6.43;;
11711;SDS011;5912;51.034;6.984;2022-10-31T09:55:40;9.63;;;5.38;;
11711;SDS011;5912;51.034;6.984;2022-10-31T09:58:13;10.93;;;5.65;;
11711;SDS011;5912;51.034;6.984;2022-10-31T10:00:42;7.93;;;5.20;;
11711;SDS011;5912;51.034;6.984;2022-10-31T10:03:16;9.45;;;5.15;;
11711;SDS011;5912;51.034;6.984;2022-10-31T10:06:11;7.90;;;5.30;;
11711;SDS011;5912;51.034;6.984;2022-10-31T10:08:42;7.13;;;5.00;;
11711;SDS011;5912;51.034;6.984;2022-10-31T10:14:05;5.97;;;4.65;;
11711;SDS011;5912;51.034;6.984;2022-10-31T10:22:42;8.15;;;4.57;;
11711;SDS011;5912;51.034;6.984;2022-10-31T10:25:18;6.53;;;4.25;;
11711;SDS011;5912;51.034;6.984;2022-10-31T10:33:12;8.48;;;4.30;;
11711;SDS011;5912;51.034;6.984;2022-10-31T10:36:03;5.82;;;4.15;;
11711;SDS011;5912;51.034;6.984;2022-10-31T10:41:05;9.30;;;3.90;;
11711;SDS011;5912;51.034;6.984;2022-10-31T10:43:35;6.25;;;3.85;;
11711;SDS011;5912;51.034;6.984;2022-10-31T10:54:20;6.80;;;3.97;;
11711;SDS011;5912;51.034;6.984;2022-10-31T10:59:43;6.95;;;3.85;;
11711;SDS011;5912;51.034;6.984;2022-10-31T11:02:18;8.55;;;4.18;;
11711;SDS011;5912;51.034;6.984;2022-10-31T11:04:48;7.43;;;3.55;;
11711;SDS011;5912;51.034;6.984;2022-10-31T11:07:16;6.25;;;3.78;;
11711;SDS011;5912;51.034;6.984;2022-10-31T11:09:42;9.50;;;3.75;;
11711;SDS011;5912;51.034;6.984;2022-10-31T11:12:14;6.40;;;3.30;;
11711;SDS011;5912;51.034;6.984;2022-10-31T11:14:51;5.85;;;3.30;;
11711;SDS011;5912;51.034;6.984;2022-10-31T11:17:28;11.43;;;3.80;;
11711;SDS011;5912;51.034;6.984;2022-10-31T11:20:39;7.13;;;3.35;;
11711;SDS011;5912;51.034;6.984;2022-10-31T11:22:46;6.07;;;3.60;;
11711;SDS011;5912;51.034;6.984;2022-10-31T11:27:43;7.88;;;3.33;;
11711;SDS011;5912;51.034;6.984;2022-10-31T11:30:09;6.03;;;3.28;;
11711;SDS011;5912;51.034;6.984;2022-10-31T11:32:36;6.10;;;3.30;;
11711;SDS011;5912;51.034;6.984;2022-10-31T11:35:13;10.25;;;3.50;;
11711;SDS011;5912;51.034;6.984;2022-10-31T11:37:43;8.23;;;3.60;;
11711;SDS011;5912;51.034;6.984;2022-10-31T11:40:20;6.80;;;3.22;;
11711;SDS011;5912;51.034;6.984;2022-10-31T11:42:49;5.05;;;3.45;;
11711;SDS011;5912;51.034;6.984;2022-10-31T11:45:19;5.10;;;2.97;;
11711;SDS011;5912;51.034;6.984;2022-10-31T11:47:54;8.30;;;3.03;;
11711;SDS011;5912;51.034;6.984;2022-10-31T11:50:22;4.70;;;3.13;;
11711;SDS011;5912;51.034;6.984;2022-10-31T11:52:51;6.75;;;3.35;;
11711;SDS011;5912;51.034;6.984;2022-10-31T11:55:29;7.65;;;3.85;;
11711;SDS011;5912;51.034;6.984;2022-10-31T11:57:57;5.05;;;3.10;;
11711;SDS011;5912;51.034;6.984;2022-10-31T12:00:24;5.47;;;2.90;;
11711;SDS011;5912;51.034;6.984;2022-10-31T12:02:50;6.78;;;3.15;;
11711;SDS011;5912;51.034;6.984;2022-10-31T12:05:20;6.93;;;3.10;;
11711;SDS011;5912;51.034;6.984;2022-10-31T12:07:50;9.20;;;4.47;;
11711;SDS011;5912;51.034;6.984;2022-10-31T12:10:15;4.20;;;3.00;;
11711;SDS011;5912;51.034;6.984;2022-10-31T12:12:47;5.97;;;3.47;;
11711;SDS011;5912;51.034;6.984;2022-10-31T12:17:58;5.45;;;3.05;;
11711;SDS011;5912;51.034;6.984;2022-10-31T12:35:00;6.93;;;3.28;;
11711;SDS011;5912;51.034;6.984;2022-10-31T12:37:53;9.48;;;3.63;;
11711;SDS011;5912;51.034;6.984;2022-10-31T12:43:46;6.20;;;3.00;;
11711;SDS011;5912;51.034;6.984;2022-10-31T12:46:48;5.55;;;2.90;;
11711;SDS011;5912;51.034;6.984;2022-10-31T12:52:19;5.72;;;3.50;;
11711;SDS011;5912;51.034;6.984;2022-10-31T12:55:06;6.93;;;3.67;;
11711;SDS011;5912;51.034;6.984;2022-10-31T12:57:35;8.57;;;3.42;;
11711;SDS011;5912;51.034;6.984;2022-10-31T13:00:10;9.05;;;3.15;;
11711;SDS011;5912;51.034;6.984;2022-10-31T13:07:58;8.45;;;3.25;;
11711;SDS011;5912;51.034;6.984;2022-10-31T13:13:14;6.28;;;3.47;;
11711;SDS011;5912;51.034;6.984;2022-10-31T13:15:47;4.35;;;2.80;;
11711;SDS011;5912;51.034;6.984;2022-10-31T13:21:08;5.22;;;2.80;;
11711;SDS011;5912;51.034;6.984;2022-10-31T13:23:38;5.00;;;2.75;;
11711;SDS011;5912;51.034;6.984;2022-10-31T13:26:26;7.40;;;2.97;;
11711;SDS011;5912;51.034;6.984;2022-10-31T13:31:42;7.63;;;2.90;;
11711;SDS011;5912;51.034;6.984;2022-10-31T13:34:16;7.00;;;3.25;;
11711;SDS011;5912;51.034;6.984;2022-10-31T13:37:35;7.63;;;3.10;;
11711;SDS011;5912;51.034;6.984;2022-10-31T13:45:27;6.18;;;2.63;;
11711;SDS011;5912;51.034;6.984;2022-10-31T13:50:40;5.15;;;2.80;;
11711;SDS011;5912;51.034;6.984;2022-10-31T13:55:42;4.65;;;2.75;;
11711;SDS011;5912;51.034;6.984;2022-10-31T13:58:23;9.80;;;2.90;;
11711;SDS011;5912;51.034;6.984;2022-10-31T14:03:40;7.70;;;2.65;;
11711;SDS011;5912;51.034;6.984;2022-10-31T14:06:08;7.07;;;2.92;;
11711;SDS011;5912;51.034;6.984;2022-10-31T14:08:36;3.88;;;2.60;;
11711;SDS011;5912;51.034;6.984;2022-10-31T14:11:04;7.93;;;3.58;;
11711;SDS011;5912;51.034;6.984;2022-10-31T14:13:33;7.57;;;3.65;;
11711;SDS011;5912;51.034;6.984;2022-10-31T14:16:28;6.75;;;3.08;;
11711;SDS011;5912;51.034;6.984;2022-10-31T14:19:35;11.02;;;3.22;;
11711;SDS011;5912;51.034;6.984;2022-10-31T14:21:44;6.20;;;3.08;;
11711;SDS011;5912;51.034;6.984;2022-10-31T14:26:58;6.18;;;2.83;;
11711;SDS011;5912;51.034;6.984;2022-10-31T14:29:26;5.00;;;2.60;;
11711;SDS011;5912;51.034;6.984;2022-10-31T14:42:51;7.03;;;3.08;;
11711;SDS011;5912;51.034;6.984;2022-10-31T14:51:29;6.25;;;2.70;;
11711;SDS011;5912;51.034;6.984;2022-10-31T14:54:11;8.10;;;2.85;;
11711;SDS011;5912;51.034;6.984;2022-10-31T14:56:43;4.95;;;2.67;;
11711;SDS011;5912;51.034;6.984;2022-10-31T14:59:18;7.63;;;2.90;;
11711;SDS011;5912;51.034;6.984;2022-10-31T15:01:54;5.75;;;2.85;;
11711;SDS011;5912;51.034;6.984;2022-10-31T15:04:23;7.22;;;2.75;;
11711;SDS011;5912;51.034;6.984;2022-10-31T15:06:52;7.28;;;3.15;;
11711;SDS011;5912;51.034;6.984;2022-10-31T15:09:33;6.55;;;2.90;;
11711;SDS011;5912;51.034;6.984;2022-10-31T15:12:00;6.47;;;2.80;;
11711;SDS011;5912;51.034;6.984;2022-10-31T15:14:45;5.15;;;3.33;;
11711;SDS011;5912;51.034;6.984;2022-10-31T15:17:11;9.48;;;3.28;;
11711;SDS011;5912;51.034;6.984;2022-10-31T15:19:36;9.10;;;3.03;;
11711;SDS011;5912;51.034;6.984;2022-10-31T15:22:02;8.93;;;3.10;;
11711;SDS011;5912;51.034;6.984;2022-10-31T15:24:35;8.50;;;3.50;;
11711;SDS011;5912;51.034;6.984;2022-10-31T15:27:02;7.18;;;2.67;;
11711;SDS011;5912;51.034;6.984;2022-10-31T15:29:28;6.20;;;2.72;;
11711;SDS011;5912;51.034;6.984;2022-10-31T15:34:37;6.40;;;2.97;;
11711;SDS011;5912;51.034;6.984;2022-10-31T15:37:07;4.07;;;2.20;;
11711;SDS011;5912;51.034;6.984;2022-10-31T15:39:36;4.35;;;2.45;;
11711;SDS011;5912;51.034;6.984;2022-10-31T15:42:01;6.95;;;2.90;;
11711;SDS011;5912;51.034;6.984;2022-10-31T15:44:31;9.20;;;3.28;;
11711;SDS011;5912;51.034;6.984;2022-10-31T15:47:01;4.65;;;2.80;;
11711;SDS011;5912;51.034;6.984;2022-10-31T15:49:29;7.38;;;2.70;;
11711;SDS011;5912;51.034;6.984;2022-10-31T15:52:07;6.80;;;2.47;;
11711;SDS011;5912;51.034;6.984;2022-10-31T15:54:44;6.50;;;2.28;;
11711;SDS011;5912;51.034;6.984;2022-10-31T15:57:15;4.72;;;2.42;;
11711;SDS011;5912;51.034;6.984;2022-10-31T15:59:41;6.13;;;2.35;;
11711;SDS011;5912;51.034;6.984;2022-10-31T16:02:11;12.73;;;2.80;;
11711;SDS011;5912;51.034;6.984;2022-10-31T16:04:37;5.78;;;2.85;;
11711;SDS011;5912;51.034;6.984;2022-10-31T16:07:15;5.72;;;2.30;;
11711;SDS011;5912;51.034;6.984;2022-10-31T16:12:22;7.38;;;2.45;;
11711;SDS011;5912;51.034;6.984;2022-10-31T16:14:49;4.20;;;2.33;;
11711;SDS011;5912;51.034;6.984;2022-10-31T16:17:17;9.68;;;2.55;;
11711;SDS011;5912;51.034;6.984;2022-10-31T16:20:04;6.88;;;2.50;;
11711;SDS011;5912;51.034;6.984;2022-10-31T16:22:34;5.72;;;2.70;;
11711;SDS011;5912;51.034;6.984;2022-10-31T16:25:03;4.65;;;2.35;;
11711;SDS011;5912;51.034;6.984;2022-10-31T16:27:40;5.72;;;2.10;;
11711;SDS011;5912;51.034;6.984;2022-10-31T16:30:34;5.05;;;2.22;;
11711;SDS011;5912;51.034;6.984;2022-10-31T16:33:19;5.15;;;2.50;;
11711;SDS011;5912;51.034;6.984;2022-10-31T16:36:01;4.70;;;2.33;;
11711;SDS011;5912;51.034;6.984;2022-10-31T16:38:45;9.05;;;2.97;;
11711;SDS011;5912;51.034;6.984;2022-10-31T16:41:10;4.85;;;2.38;;
11711;SDS011;5912;51.034;6.984;2022-10-31T16:43:35;5.68;;;2.50;;
11711;SDS011;5912;51.034;6.984;2022-10-31T16:46:00;3.47;;;2.50;;
11711;SDS011;5912;51.034;6.984;2022-10-31T16:48:26;7.80;;;2.85;;
11711;SDS011;5912;51.034;6.984;2022-10-31T16:50:51;6.90;;;3.10;;
11711;SDS011;5912;51.034;6.984;2022-10-31T16:53:17;7.50;;;2.53;;
11711;SDS011;5912;51.034;6.984;2022-10-31T16:55:44;6.88;;;2.70;;
11711;SDS011;5912;51.034;6.984;2022-10-31T16:58:17;9.73;;;2.72;;
11711;SDS011;5912;51.034;6.984;2022-10-31T17:00:46;4.60;;;2.50;;
11711;SDS011;5912;51.034;6.984;2022-10-31T17:03:11;5.50;;;2.42;;
11711;SDS011;5912;51.034;6.984;2022-10-31T17:05:37;6.88;;;2.55;;
11711;SDS011;5912;51.034;6.984;2022-10-31T17:08:02;6.57;;;2.85;;
11711;SDS011;5912;51.034;6.984;2022-10-31T17:10:28;5.95;;;2.70;;
11711;SDS011;5912;51.034;6.984;2022-10-31T17:12:53;8.52;;;2.72;;
11711;SDS011;5912;51.034;6.984;2022-10-31T17:15:23;7.63;;;2.72;;
11711;SDS011;5912;51.034;6.984;2022-10-31T17:17:49;8.63;;;3.03;;
11711;SDS011;5912;51.034;6.984;2022-10-31T17:20:29;5.43;;;2.42;;
11711;SDS011;5912;51.034;6.984;2022-10-31T17:22:55;4.75;;;2.47;;
11711;SDS011;5912;51.034;6.984;2022-10-31T17:25:23;6.50;;;3.17;;
11711;SDS011;5912;51.034;6.984;2022-10-31T17:27:50;4.60;;;2.67;;
11711;SDS011;5912;51.034;6.984;2022-10-31T17:30:16;5.90;;;2.90;;
11711;SDS011;5912;51.034;6.984;2022-10-31T17:32:43;5.70;;;2.42;;
11711;SDS011;5912;51.034;6.984;2022-10-31T17:35:09;4.85;;;2.75;;
11711;SDS011;5912;51.034;6.984;2022-10-31T17:37:35;5.00;;;2.60;;
11711;SDS011;5912;51.034;6.984;2022-10-31T17:40:00;8.70;;;2.70;;
11711;SDS011;5912;51.034;6.984;2022-10-31T17:42:26;4.97;;;2.60;;
11711;SDS011;5912;51.034;6.984;2022-10-31T17:44:52;4.63;;;3.13;;
11711;SDS011;5912;51.034;6.984;2022-10-31T17:47:17;5.65;;;2.53;;